Paramount Hamilton — 2CWB2 — position and weather

sailwx.info

Track history (hours):
 
Tides and Currents Weather Stations Pressure Air Temp Water Temp Dewpoint Dewpoint Depression Visibility Wind Speed Wind Dir Waves Ship Positions

Paramount Hamilton

Last reported at 2014-Jul-12 15:22 UTC. Time now 2014-Jul-26 11:14 UTC.
Position N 29°11' W 094°30'.
Warning: this ship's position is 13 days out of date.

Length 250 m; draft 8 m.

Type: Tanker. MMSI: 235076274.

Date/timePositionNaut miles runAvg speedWind from/ knotsBaromVisibWave heightAir tempDewpointWater temp
2014-Jul-12 15:22N 29°11' W 094°30'1112.8
2014-Jul-12 14:32N 29°19' W 094°38'1110.9
2014-Jul-12 13:33N 29°24' W 094°49'1110.8
2014-Jul-12 12:34N 29°33' W 094°55'1010.4
2014-Jul-12 11:33N 29°42' W 095°01'6 5.5
2014-Jul-12 10:33N 29°44' W 095°07'1 0.8
2014-Jul-12 09:33N 29°44' W 095°08'0 0.0
2014-Jul-12 08:33N 29°44' W 095°08'0 0.0
2014-Jul-12 07:33N 29°44' W 095°08'0 0.0
2014-Jul-12 06:33N 29°44' W 095°08'0 0.0
2014-Jul-12 05:33N 29°44' W 095°08'0 0.0
2014-Jul-12 04:33N 29°44' W 095°08'0 0.0
2014-Jul-12 03:33N 29°44' W 095°08'0 0.0
2014-Jul-12 02:33N 29°44' W 095°08'0 0.0
2014-Jul-12 01:33N 29°44' W 095°08'0 0.0
2014-Jul-12 00:33N 29°44' W 095°08'0 0.0
2014-Jul-11 23:33N 29°44' W 095°08'0 0.0
2014-Jul-11 22:33N 29°44' W 095°08'0 0.0
2014-Jul-11 21:27N 29°44' W 095°08'0 0.0
2014-Jul-11 20:33N 29°44' W 095°08'0 0.0
2014-Jul-11 19:33N 29°44' W 095°08'0 0.0
2014-Jul-11 18:18N 29°44' W 095°08'0 0.0
2014-Jul-11 17:33N 29°44' W 095°08'0 0.0
2014-Jul-11 16:33N 29°44' W 095°08'0 0.0
2014-Jul-11 15:33N 29°44' W 095°08'0 0.0
2014-Jul-11 14:33N 29°44' W 095°08'0 0.0
2014-Jul-11 13:33N 29°44' W 095°08'0 0.0
2014-Jul-11 12:24N 29°44' W 095°08'0 0.0
2014-Jul-11 11:33N 29°44' W 095°08'0 0.0
2014-Jul-11 10:24N 29°44' W 095°08'0 0.0
2014-Jul-11 09:30N 29°44' W 095°08'0 0.0
2014-Jul-11 08:30N 29°44' W 095°08'0 0.0
2014-Jul-11 07:33N 29°44' W 095°08'0 0.0
2014-Jul-11 06:30N 29°44' W 095°08'0 0.0
2014-Jul-11 05:33N 29°44' W 095°08'0 0.0
2014-Jul-11 04:30N 29°44' W 095°08'0 0.0
2014-Jul-11 03:30N 29°44' W 095°08'0 0.0
2014-Jul-11 02:33N 29°44' W 095°08'0 0.0
2014-Jul-11 01:33N 29°44' W 095°08'0 0.0
2014-Jul-11 00:27N 29°44' W 095°08'0 0.0
2014-Jul-10 23:33N 29°44' W 095°08'0 0.0
2014-Jul-10 22:33N 29°44' W 095°08'0 0.0
2014-Jul-10 21:33N 29°44' W 095°08'0 0.0
2014-Jul-10 20:33N 29°44' W 095°08'0 0.0
2014-Jul-10 19:30N 29°44' W 095°08'0 0.0
2014-Jul-10 18:33N 29°44' W 095°08'0 0.0
2014-Jul-10 17:33N 29°44' W 095°08'0 0.0
2014-Jul-10 16:33N 29°44' W 095°08'0 0.4
2014-Jul-10 15:33N 29°44' W 095°07'4 4.3
2014-Jul-10 14:33N 29°44' W 095°02'7 6.6
2014-Jul-10 13:33N 29°38' W 094°58'1110.5
2014-Jul-10 12:32N 29°29' W 094°52'1010.5
2014-Jul-10 11:33N 29°21' W 094°45'15 0.6
2014-Jul-09 08:06N 29°08' W 094°34'  
2014-Jul-04 12:06N 29°08' W 094°35'0 0.1
2014-Jul-04 10:18N 29°08' W 094°35'6 6.6
2014-Jul-04 09:22N 29°02' W 094°32'1011.9
2014-Jul-04 08:33N 28°53' W 094°29'  
Track history (hours):
 
Tides and Currents Weather Stations Pressure Air Temp Water Temp Dewpoint Dewpoint Depression Visibility Wind Speed Wind Dir Waves Ship Positions

Paramount Hamilton

Last reported at 2014-Jul-12 15:22 UTC. Time now 2014-Jul-26 11:14 UTC.
Position N 29°11' W 094°30'.
Warning: this ship's position is 13 days out of date.

Length 250 m; draft 8 m.

Type: Tanker. MMSI: 235076274.

Date/timePositionNaut miles runAvg speedWind from/ knotsBaromVisibWave heightAir tempDewpointWater temp
2014-Jul-12 15:22N 29°11' W 094°30'1112.8
2014-Jul-12 14:32N 29°19' W 094°38'1110.9
2014-Jul-12 13:33N 29°24' W 094°49'1110.8
2014-Jul-12 12:34N 29°33' W 094°55'1010.4
2014-Jul-12 11:33N 29°42' W 095°01'6 5.5
2014-Jul-12 10:33N 29°44' W 095°07'1 0.8
2014-Jul-12 09:33N 29°44' W 095°08'0 0.0
2014-Jul-12 08:33N 29°44' W 095°08'0 0.0
2014-Jul-12 07:33N 29°44' W 095°08'0 0.0
2014-Jul-12 06:33N 29°44' W 095°08'0 0.0
2014-Jul-12 05:33N 29°44' W 095°08'0 0.0
2014-Jul-12 04:33N 29°44' W 095°08'0 0.0
2014-Jul-12 03:33N 29°44' W 095°08'0 0.0
2014-Jul-12 02:33N 29°44' W 095°08'0 0.0
2014-Jul-12 01:33N 29°44' W 095°08'0 0.0
2014-Jul-12 00:33N 29°44' W 095°08'0 0.0
2014-Jul-11 23:33N 29°44' W 095°08'0 0.0
2014-Jul-11 22:33N 29°44' W 095°08'0 0.0
2014-Jul-11 21:27N 29°44' W 095°08'0 0.0
2014-Jul-11 20:33N 29°44' W 095°08'0 0.0
2014-Jul-11 19:33N 29°44' W 095°08'0 0.0
2014-Jul-11 18:18N 29°44' W 095°08'0 0.0
2014-Jul-11 17:33N 29°44' W 095°08'0 0.0
2014-Jul-11 16:33N 29°44' W 095°08'0 0.0
2014-Jul-11 15:33N 29°44' W 095°08'0 0.0
2014-Jul-11 14:33N 29°44' W 095°08'0 0.0
2014-Jul-11 13:33N 29°44' W 095°08'0 0.0
2014-Jul-11 12:24N 29°44' W 095°08'0 0.0
2014-Jul-11 11:33N 29°44' W 095°08'0 0.0
2014-Jul-11 10:24N 29°44' W 095°08'0 0.0
2014-Jul-11 09:30N 29°44' W 095°08'0 0.0
2014-Jul-11 08:30N 29°44' W 095°08'0 0.0
2014-Jul-11 07:33N 29°44' W 095°08'0 0.0
2014-Jul-11 06:30N 29°44' W 095°08'0 0.0
2014-Jul-11 05:33N 29°44' W 095°08'0 0.0
2014-Jul-11 04:30N 29°44' W 095°08'0 0.0
2014-Jul-11 03:30N 29°44' W 095°08'0 0.0
2014-Jul-11 02:33N 29°44' W 095°08'0 0.0
2014-Jul-11 01:33N 29°44' W 095°08'0 0.0
2014-Jul-11 00:27N 29°44' W 095°08'0 0.0
2014-Jul-10 23:33N 29°44' W 095°08'0 0.0
2014-Jul-10 22:33N 29°44' W 095°08'0 0.0
2014-Jul-10 21:33N 29°44' W 095°08'0 0.0
2014-Jul-10 20:33N 29°44' W 095°08'0 0.0
2014-Jul-10 19:30N 29°44' W 095°08'0 0.0
2014-Jul-10 18:33N 29°44' W 095°08'0 0.0
2014-Jul-10 17:33N 29°44' W 095°08'0 0.0
2014-Jul-10 16:33N 29°44' W 095°08'0 0.4
2014-Jul-10 15:33N 29°44' W 095°07'4 4.3
2014-Jul-10 14:33N 29°44' W 095°02'7 6.6
2014-Jul-10 13:33N 29°38' W 094°58'1110.5
2014-Jul-10 12:32N 29°29' W 094°52'1010.5
2014-Jul-10 11:33N 29°21' W 094°45'15 0.6
2014-Jul-09 08:06N 29°08' W 094°34'  
2014-Jul-04 12:06N 29°08' W 094°35'0 0.1
2014-Jul-04 10:18N 29°08' W 094°35'6 6.6
2014-Jul-04 09:22N 29°02' W 094°32'1011.9
2014-Jul-04 08:33N 28°53' W 094°29'  

Dump ship's entire track history